createdAt,value
2022-11-02T00:03:08.670Z,21.30
2022-11-02T00:08:08.221Z,22.40
2022-11-02T00:13:08.207Z,22.30
2022-11-02T00:18:08.092Z,22.70
2022-11-02T00:23:08.068Z,22.10
2022-11-02T00:28:07.896Z,22.60
2022-11-02T00:33:07.839Z,22.00
2022-11-02T00:38:08.041Z,20.40
2022-11-02T00:43:07.730Z,23.80
2022-11-02T00:48:08.020Z,22.50
2022-11-02T00:53:07.643Z,22.90
2022-11-02T00:58:07.811Z,22.60
2022-11-02T01:03:07.428Z,22.20
2022-11-02T01:08:07.515Z,22.90
2022-11-02T01:13:07.333Z,22.30
2022-11-02T01:18:07.517Z,23.20
2022-11-02T01:23:07.166Z,24.20
2022-11-02T01:28:07.324Z,23.10
2022-11-02T01:33:07.013Z,23.20
2022-11-02T01:38:07.250Z,23.30
2022-11-02T01:43:06.912Z,21.10
2022-11-02T01:48:07.047Z,20.00
2022-11-02T01:53:06.775Z,19.00
2022-11-02T01:58:07.060Z,19.30
2022-11-02T02:03:06.614Z,22.10
2022-11-02T02:08:07.055Z,22.30
2022-11-02T02:13:06.493Z,21.80
2022-11-02T02:18:06.743Z,21.80
2022-11-02T02:23:06.390Z,21.50
2022-11-02T02:28:06.679Z,24.20
2022-11-02T02:33:06.277Z,23.60
2022-11-02T02:38:06.579Z,23.90
2022-11-02T02:43:06.088Z,23.00
2022-11-02T02:48:08.097Z,24.30
2022-11-02T02:53:08.880Z,23.20
2022-11-02T02:58:06.191Z,23.00
2022-11-02T03:03:05.867Z,21.90
2022-11-02T03:08:06.102Z,23.20
2022-11-02T03:13:05.732Z,22.90
2022-11-02T03:18:05.967Z,22.00
2022-11-02T03:23:05.589Z,21.60
2022-11-02T03:28:05.958Z,21.00
2022-11-02T03:33:05.468Z,20.50
2022-11-02T03:38:05.672Z,20.00
2022-11-02T03:43:05.378Z,19.50
2022-11-02T03:48:05.465Z,19.80
2022-11-02T03:53:05.193Z,22.20
2022-11-02T03:58:05.394Z,21.00
2022-11-02T04:03:05.074Z,20.70
2022-11-02T04:08:05.205Z,21.00
2022-11-02T04:13:04.931Z,20.90
2022-11-02T04:18:05.106Z,22.50
2022-11-02T04:23:04.826Z,22.60
2022-11-02T04:28:04.948Z,19.70
2022-11-02T04:33:04.708Z,19.30
2022-11-02T04:38:04.949Z,21.00
2022-11-02T04:43:04.527Z,20.30
2022-11-02T04:48:04.780Z,19.90
2022-11-02T04:53:04.410Z,18.70
2022-11-02T04:58:04.729Z,19.60
2022-11-02T05:03:08.100Z,19.00
2022-11-02T05:08:05.556Z,18.50
2022-11-02T05:13:04.161Z,18.70
2022-11-02T05:18:04.491Z,18.40
2022-11-02T05:23:04.347Z,18.50
2022-11-02T05:28:03.985Z,19.00
2022-11-02T05:33:04.176Z,20.10
2022-11-02T05:38:03.804Z,18.70
2022-11-02T05:43:04.115Z,18.30
2022-11-02T05:48:03.699Z,17.40
2022-11-02T05:53:04.128Z,18.30
2022-11-02T05:58:03.565Z,17.90
2022-11-02T06:03:03.909Z,18.80
2022-11-02T06:08:07.297Z,18.60
2022-11-02T06:13:03.773Z,18.00
2022-11-02T06:18:03.289Z,17.70
2022-11-02T06:23:03.913Z,17.00
2022-11-02T06:28:03.181Z,16.40
2022-11-02T06:33:06.926Z,14.80
2022-11-02T06:38:03.047Z,15.50
2022-11-02T06:43:15.897Z,13.80
2022-11-02T06:48:03.969Z,11.70
2022-11-02T06:53:03.325Z,10.70
2022-11-02T06:58:02.774Z,9.90
2022-11-02T07:03:03.014Z,9.10
2022-11-02T07:08:02.660Z,9.30
2022-11-02T07:13:02.866Z,9.60
2022-11-02T07:18:02.509Z,9.70
2022-11-02T07:23:02.624Z,9.40
2022-11-02T07:28:02.409Z,9.10
2022-11-02T07:33:02.670Z,8.10
2022-11-02T07:38:02.249Z,7.90
2022-11-02T07:43:02.452Z,7.50
2022-11-02T07:48:02.146Z,7.10
2022-11-02T07:53:02.296Z,7.30
2022-11-02T07:58:02.218Z,7.20
2022-11-02T08:03:02.075Z,7.10
2022-11-02T08:08:02.195Z,7.10
2022-11-02T08:13:01.816Z,7.10
2022-11-02T08:18:02.125Z,7.40
2022-11-02T08:23:01.676Z,7.30
2022-11-02T08:28:01.785Z,6.60
2022-11-02T08:33:01.576Z,6.60
2022-11-02T08:38:01.694Z,6.30
2022-11-02T08:43:01.451Z,6.20
2022-11-02T08:48:01.506Z,6.30
2022-11-02T08:53:01.304Z,5.00
2022-11-02T08:58:01.272Z,3.80
2022-11-02T09:03:01.153Z,4.00
2022-11-02T09:08:01.117Z,1.60
2022-11-02T09:13:00.980Z,2.30
2022-11-02T09:18:00.968Z,1.40
2022-11-02T09:23:00.867Z,1.40
2022-11-02T09:28:00.826Z,1.50
2022-11-02T09:33:00.754Z,1.60
2022-11-02T09:38:00.675Z,1.50
2022-11-02T09:43:00.602Z,1.50
2022-11-02T09:48:16.433Z,1.30
2022-11-02T09:53:01.811Z,1.50
2022-11-02T09:58:00.409Z,1.50
2022-11-02T10:03:00.402Z,1.10
2022-11-02T10:08:00.402Z,1.10
2022-11-02T10:13:00.214Z,1.30
2022-11-02T10:18:00.171Z,1.20
2022-11-02T10:23:00.109Z,1.10
2022-11-02T10:28:00.039Z,1.10
2022-11-02T10:32:59.951Z,1.10
2022-11-02T10:37:59.867Z,1.10
2022-11-02T10:42:59.828Z,1.10
2022-11-02T10:47:59.759Z,1.00
2022-11-02T10:53:20.217Z,1.20
2022-11-02T10:58:00.629Z,1.00
2022-11-02T11:02:59.587Z,1.40
2022-11-02T11:07:59.513Z,1.20
2022-11-02T11:12:59.431Z,1.10
2022-11-02T11:23:00.309Z,1.20
2022-11-02T11:27:59.244Z,1.30
2022-11-02T11:32:59.381Z,1.20
2022-11-02T11:37:59.391Z,1.70
2022-11-02T11:43:02.306Z,1.20
2022-11-02T11:47:58.975Z,1.30
2022-11-02T11:52:58.920Z,1.40
2022-11-02T11:57:58.855Z,1.30
2022-11-02T12:02:58.829Z,1.30
2022-11-02T12:07:58.725Z,1.20
2022-11-02T12:12:58.665Z,1.10
2022-11-02T12:17:58.624Z,1.10
2022-11-02T12:22:58.517Z,1.20
2022-11-02T12:27:58.467Z,1.20
2022-11-02T12:32:58.396Z,1.20
2022-11-02T12:37:58.314Z,1.20
2022-11-02T12:42:58.243Z,1.40
2022-11-02T12:47:58.390Z,0.90
2022-11-02T12:52:58.134Z,1.10
2022-11-02T12:57:58.029Z,1.10
2022-11-02T13:02:57.958Z,1.30
2022-11-02T13:07:57.918Z,1.10
2022-11-02T13:12:57.860Z,1.20
2022-11-02T13:17:57.785Z,1.40
2022-11-02T13:22:57.718Z,1.40
2022-11-02T13:28:02.688Z,1.00
2022-11-02T13:32:58.645Z,1.10
2022-11-02T13:37:58.470Z,1.10
2022-11-02T13:42:57.560Z,1.20
2022-11-02T13:47:57.385Z,1.00
2022-11-02T13:52:57.337Z,1.00
2022-11-02T13:57:57.293Z,1.20
2022-11-02T14:02:57.254Z,1.20
2022-11-02T14:07:57.125Z,0.90
2022-11-02T14:12:57.903Z,1.10
2022-11-02T14:17:57.015Z,1.20
2022-11-02T14:22:56.966Z,1.10
2022-11-02T14:27:56.877Z,0.90
2022-11-02T14:32:56.835Z,1.30
2022-11-02T14:37:57.077Z,1.40
2022-11-02T14:42:56.888Z,1.20
2022-11-02T14:47:56.554Z,1.40
2022-11-02T14:52:56.506Z,1.10
2022-11-02T14:57:56.443Z,1.00
2022-11-02T15:02:56.444Z,1.20
2022-11-02T15:07:56.332Z,1.40
2022-11-02T15:12:56.289Z,1.20
2022-11-02T15:17:56.333Z,1.40
2022-11-02T15:22:56.217Z,1.10
2022-11-02T15:27:56.048Z,1.30
2022-11-02T15:33:01.259Z,1.50
2022-11-02T15:38:16.535Z,1.30
2022-11-02T15:42:56.905Z,1.30
2022-11-02T15:47:55.803Z,1.00
2022-11-02T15:53:21.632Z,1.20
2022-11-02T15:57:56.781Z,1.30
2022-11-02T16:02:55.711Z,1.40
2022-11-02T16:08:11.522Z,1.30
2022-11-02T16:12:56.459Z,1.30
2022-11-02T16:17:55.400Z,1.30
2022-11-02T16:22:55.329Z,1.40
2022-11-02T16:27:55.273Z,1.80
2022-11-02T16:32:55.253Z,1.60
2022-11-02T16:37:55.147Z,1.60
2022-11-02T16:42:55.105Z,1.80
2022-11-02T16:47:55.023Z,2.00
2022-11-02T16:52:55.025Z,1.90
2022-11-02T16:57:54.864Z,2.00
2022-11-02T17:02:54.861Z,2.20
2022-11-02T17:07:54.811Z,8.00
2022-11-02T17:12:55.044Z,2.40
2022-11-02T17:17:54.785Z,2.00
2022-11-02T17:22:54.832Z,2.50
2022-11-02T17:27:54.777Z,2.70
2022-11-02T17:32:56.664Z,3.10
2022-11-02T17:37:54.575Z,2.80
2022-11-02T17:42:54.320Z,2.40
2022-11-02T17:47:54.425Z,3.40
2022-11-02T17:52:54.145Z,2.90
2022-11-02T17:57:54.169Z,3.50
2022-11-02T18:02:54.163Z,3.90
2022-11-02T18:07:54.041Z,3.90
2022-11-02T18:12:54.177Z,4.30
2022-11-02T18:17:53.829Z,3.60
2022-11-02T18:22:53.824Z,4.00
2022-11-02T18:27:53.690Z,5.00
2022-11-02T18:32:53.623Z,7.70
2022-11-02T18:37:53.585Z,6.10
2022-11-02T18:42:53.546Z,9.60
2022-11-02T18:47:53.441Z,8.40
2022-11-02T18:52:53.656Z,8.80
2022-11-02T18:57:53.269Z,5.20
2022-11-02T19:02:53.224Z,5.50
2022-11-02T19:07:53.163Z,4.50
2022-11-02T19:12:53.229Z,3.50
2022-11-02T19:17:53.013Z,3.40
2022-11-02T19:22:54.632Z,4.30
2022-11-02T19:27:52.890Z,3.90
2022-11-02T19:32:52.940Z,3.90
2022-11-02T19:37:53.139Z,4.90
2022-11-02T19:42:52.829Z,4.90
2022-11-02T19:47:52.679Z,4.40
2022-11-02T19:52:52.604Z,4.80
2022-11-02T19:57:52.518Z,5.20
2022-11-02T20:02:52.697Z,5.30
2022-11-02T20:07:52.459Z,4.40
2022-11-02T20:12:52.328Z,5.10
2022-11-02T20:18:17.618Z,5.90
2022-11-02T20:22:53.389Z,5.50
2022-11-02T20:27:52.212Z,4.50
2022-11-02T20:32:52.159Z,4.50
2022-11-02T20:37:51.940Z,5.30
2022-11-02T20:42:52.042Z,5.00
2022-11-02T20:47:51.922Z,4.50
2022-11-02T20:52:51.748Z,4.90
2022-11-02T20:57:51.761Z,5.10
2022-11-02T21:02:51.834Z,5.50
2022-11-02T21:07:51.536Z,5.00
2022-11-02T21:12:51.592Z,4.50
2022-11-02T21:17:51.485Z,4.80
2022-11-02T21:22:51.407Z,5.10
2022-11-02T21:27:51.517Z,4.90
2022-11-02T21:32:51.325Z,4.10
2022-11-02T21:37:51.169Z,4.60
2022-11-02T21:42:51.168Z,5.40
2022-11-02T21:47:51.100Z,5.60
2022-11-02T21:52:51.022Z,5.40
2022-11-02T21:57:50.945Z,5.80
2022-11-02T22:02:50.881Z,5.40
2022-11-02T22:07:50.796Z,5.80
2022-11-02T22:12:50.725Z,6.20
2022-11-02T22:17:50.667Z,6.50
2022-11-02T22:22:50.642Z,6.60
2022-11-02T22:27:50.565Z,6.10
2022-11-02T22:32:50.481Z,7.00
2022-11-02T22:37:50.397Z,6.30
2022-11-02T22:42:50.355Z,6.80
2022-11-02T22:47:50.296Z,6.50
2022-11-02T22:52:50.196Z,6.70
2022-11-02T22:57:50.420Z,6.90
2022-11-02T23:02:50.129Z,7.10
2022-11-02T23:07:50.011Z,6.20
2022-11-02T23:12:49.952Z,6.20
2022-11-02T23:17:49.879Z,6.90
2022-11-02T23:22:49.807Z,6.80
2022-11-02T23:27:49.737Z,6.90
2022-11-02T23:32:49.667Z,6.90
2022-11-02T23:37:49.608Z,5.90
2022-11-02T23:42:49.559Z,6.00
2022-11-02T23:47:49.478Z,6.30
2022-11-02T23:52:49.442Z,6.20
2022-11-02T23:57:49.353Z,6.10
